Kodiak, AK

3:41 AM AKST on February 08, 2016 (GMT -0900)
Baranof | | Change Station
CLOSE
Current Station
Personal Weather Station
Location: Kodiak, AK
Elevation: 85 ft
Nearby Weather Stations

Elev 85 ft 57.80 °N, 152.38 °W | Updated 5 minutes ago

Light Rain
Light Rain Mist
40.8 °F
Feels Like 36 °F
N
7.8
Wind Variable Wind from ESE

Today
High -- | Low -- °F
--% Chance of Precip.
Yesterday
High -- | Low -- °F
Precip. -- in
Pressure 29.37 in
Visibility 5.0 miles
Clouds Scattered Clouds 1400 ft
Mostly Cloudy 2000 ft
Overcast 2600 ft
Windchill 36 °F
Dew Point 37 °F
Humidity 87%
Rainfall 0.12 in
Snow Depth Not available.
8:57 AM 5:51 PM
Waning Crescent, 0% visible
SPECI PADQ 081218Z 12019KT 5SM -RA BR SCT014 BKN020 OVC026 04/03 A2937 RMK AO2 PK WND 13028/1201 P0004 T00390033
Pressure 29.37 in
Visibility 5.0 miles
Clouds Scattered Clouds 1400 ft
Mostly Cloudy 2000 ft
Overcast 2600 ft
Windchill 36 °F
Dew Point 37 °F
Humidity 87%
Rainfall 0.12 in
Snow Depth Not available.
8:57 AM 5:51 PM
Waning Crescent, 0% visible
SPECI PADQ 081218Z 12019KT 5SM -RA BR SCT014 BKN020 OVC026 04/03 A2937 RMK AO2 PK WND 13028/1201 P0004 T00390033

10-Day Weather Forecast

Almanac

Astronomy

Feb. 08, 2016 Rise Set
Actual Time
Civil Twilight
Nautical Twilight
Astronomical Twilight
Moon
Length of Visible Light
Length of Day
Tomorrow will be .
, % of the Moon is Illuminated

Today's Extremes

State Highs State Lows

Community

WunderPhotos

Upload Photos

1,891,428 photos uploaded!

WunderBlog® & News

Nearby

Air Quality

  Air Quality AQ Index Pollutant
Not available.

Snow Depth

Station Depth Elevation

Earthquake Activity

City Distance Mag. Time & Date
Minimum magnitude displayed is 2.5.

Coastal Water Temperatures

Place Temperature

Stations

Nearby Weather Stations

Station Location Temp. Windchill Dew Point Humidity Wind Precip. Elev Updated Type
                   

Watches & Warnings

There are currently no watches in effect.